Погода Ферма Новоена 2 недели

Смоленская область, Россия

24 мая-05 июня
  • 24мая
    Сегодня
    +6°
    +21°
    Ясно и безоблачно
    ВремяПогодаТемператураВлажностьДавлениеВетер, м/сВероятность осадков
    00:00Ясно и безоблачно+10°C53 %756 мм0.5 м/с2 %
    03:00Ясно и безоблачно+8°C58 %757 мм0.7 м/с2 %
    06:00Ясно и безоблачно+9°C63 %758 мм0.3 м/с2 %
    09:00Ясно и безоблачно+16°C41 %759 мм1.3 м/с2 %
    12:00Ясно и безоблачно+19°C34 %759 мм2.4 м/с2 %
    15:00Ясно и безоблачно+21°C33 %758 мм2.2 м/с2 %
    18:00Ясно и безоблачно+21°C36 %757 мм1.8 м/с2 %
    21:00Ясно и безоблачно+13°C57 %757 мм0.6 м/с2 %
  • 25мая
    Суббота
    +8°
    +24°
    Ясно и безоблачно
    ВремяПогодаТемператураВлажностьДавлениеВетер, м/сВероятность осадков
    00:00Ясно и безоблачно+9°C66 %757 мм0.5 м/с2 %
    03:00Ясно и безоблачно+7°C68 %757 мм0.7 м/с2 %
    06:00Ясно и безоблачно+8°C69 %757 мм0.5 м/с2 %
    09:00Ясно и безоблачно+16°C50 %757 мм1.2 м/с2 %
    12:00Ясно и безоблачно+21°C35 %756 мм1.5 м/с2 %
    15:00Ясно и безоблачно+22°C32 %755 мм1.6 м/с2 %
    18:00Ясно и безоблачно+23°C34 %754 мм1.2 м/с2 %
    21:00Ясно и безоблачно+16°C61 %753 мм0.1 м/с2 %
  • 26мая
    Воскресенье
    +11°
    +26°
    Облачно с прояснениями
    ВремяПогодаТемператураВлажностьДавлениеВетер, м/сВероятность осадков
    00:00Ясно и безоблачно+12°C75 %753 мм0.1 м/с2 %
    03:00Ясно и безоблачно+10°C80 %752 мм0.2 м/с2 %
    06:00Ясно и безоблачно+11°C79 %752 мм0.0 м/с2 %
    09:00Ясно и безоблачно+19°C55 %753 мм0.8 м/с2 %
    12:00Облачно с прояснениями+24°C39 %752 мм1.7 м/с8 %
    15:00Облачно с прояснениями+25°C38 %752 мм1.3 м/с29 %
    18:00Практически безоблачно+24°C59 %752 мм1.4 м/с43 %
    21:00Практически безоблачно+17°C78 %753 мм0.6 м/с20 %
  • 27мая
    Понедельник
    +9°
    +24°
    Практически безоблачно
    ВремяПогодаТемператураВлажностьДавлениеВетер, м/сВероятность осадков
    00:00Небольшая облачность+14°C86 %753 мм0.3 м/с2 %
    03:00Небольшая облачность+12°C88 %754 мм1.0 м/с2 %
    06:00Ясно и безоблачно+12°C86 %755 мм0.4 м/с2 %
    09:00Ясно и безоблачно+18°C58 %756 мм1.6 м/с2 %
    12:00Практически безоблачно+21°C43 %756 мм1.7 м/с4 %
    15:00Практически безоблачно+23°C36 %755 мм1.3 м/с9 %
    18:00Ясно и безоблачно+22°C38 %755 мм1.7 м/с6 %
    21:00Ясно и безоблачно+16°C53 %755 мм0.7 м/с2 %
Мы используем cookies
Соглашаюсь